Terminal Aerodrome Forecast
Issued by NWS

Home | Current Version | Previous Version | Graphics & Text | Print | Product List | Glossary On
Versions: 1 2 3 4 5 6 7 8 9 10 11 12 13 14 15 16 17 18 19 20 21 22
000
FTUS43 KOAX 260500
TAFCDR
TAF
KCDR 260528Z 2606/2706 10008KT P6SM VCSH BKN100
     FM261000 15008KT P6SM SCT120
     FM261500 16012KT P6SM SCT040
     FM262300 16009KT P6SM VCTS SCT040CB BKN100=

USA.gov is the U.S. government's official web portal to all federal, state and local government web resources and services.